createdAt,value
2024-01-06T00:00:12.697Z,35.33
2024-01-06T00:01:12.758Z,35.36
2024-01-06T00:02:12.687Z,35.38
2024-01-06T00:03:12.734Z,35.37
2024-01-06T00:04:12.775Z,35.33
2024-01-06T00:05:12.702Z,35.34
2024-01-06T00:06:12.702Z,35.33
2024-01-06T00:07:12.701Z,35.34
2024-01-06T00:08:12.703Z,35.31
2024-01-06T00:09:12.687Z,35.34
2024-01-06T00:10:14.050Z,35.32
2024-01-06T00:11:12.697Z,35.33
2024-01-06T00:12:12.709Z,35.32
2024-01-06T00:13:12.684Z,35.28
2024-01-06T00:14:12.680Z,35.29
2024-01-06T00:15:12.727Z,35.29
2024-01-06T00:16:12.671Z,35.30
2024-01-06T00:17:12.712Z,35.29
2024-01-06T00:18:12.873Z,35.27
2024-01-06T00:19:12.853Z,35.26
2024-01-06T00:20:12.755Z,35.26
2024-01-06T00:21:12.725Z,35.26
2024-01-06T00:22:12.696Z,35.27
2024-01-06T00:23:12.730Z,35.25
2024-01-06T00:24:12.736Z,35.24
2024-01-06T00:25:12.712Z,35.25
2024-01-06T00:26:12.724Z,35.25
2024-01-06T00:27:12.725Z,35.24
2024-01-06T00:28:12.695Z,35.25
2024-01-06T00:29:12.707Z,35.23
2024-01-06T00:30:12.781Z,35.26
2024-01-06T00:31:12.782Z,35.22
2024-01-06T00:32:12.706Z,35.25
2024-01-06T00:33:12.807Z,35.24
2024-01-06T00:34:12.777Z,35.24
2024-01-06T00:35:12.705Z,35.20
2024-01-06T00:36:12.738Z,35.23
2024-01-06T00:37:12.730Z,35.22
2024-01-06T00:38:12.734Z,35.20
2024-01-06T00:39:12.729Z,35.21
2024-01-06T00:40:12.696Z,35.20
2024-01-06T00:41:12.705Z,35.20
2024-01-06T00:42:12.751Z,35.22
2024-01-06T00:43:12.728Z,35.19
2024-01-06T00:44:12.765Z,35.16
2024-01-06T00:45:12.739Z,35.17
2024-01-06T00:46:12.715Z,35.20
2024-01-06T00:47:12.701Z,35.19
2024-01-06T00:48:12.903Z,35.19
2024-01-06T00:49:12.827Z,35.19
2024-01-06T00:50:12.731Z,35.18
2024-01-06T00:51:12.780Z,35.18
2024-01-06T00:52:12.722Z,35.15
2024-01-06T00:53:12.747Z,35.16
2024-01-06T00:54:12.766Z,35.17
2024-01-06T00:55:12.770Z,35.15
2024-01-06T00:56:12.702Z,35.18
2024-01-06T00:57:12.762Z,35.18
2024-01-06T00:58:12.709Z,35.16
2024-01-06T00:59:12.715Z,35.15
2024-01-06T01:00:12.781Z,35.14
2024-01-06T01:01:12.827Z,35.12
2024-01-06T01:02:12.745Z,35.14
2024-01-06T01:03:12.775Z,35.13
2024-01-06T01:04:12.886Z,35.14
2024-01-06T01:05:12.817Z,35.13
2024-01-06T01:06:12.802Z,35.12
2024-01-06T01:07:12.739Z,35.11
2024-01-06T01:08:12.796Z,35.12
2024-01-06T01:09:12.742Z,35.11
2024-01-06T01:10:12.750Z,35.12
2024-01-06T01:11:12.746Z,35.11
2024-01-06T01:12:12.772Z,35.09
2024-01-06T01:13:12.767Z,35.10
2024-01-06T01:14:12.756Z,35.08
2024-01-06T01:15:12.794Z,35.08
2024-01-06T01:16:12.754Z,35.07
2024-01-06T01:17:12.777Z,35.10
2024-01-06T01:18:12.852Z,35.09
2024-01-06T01:19:12.862Z,35.09
2024-01-06T01:20:12.755Z,35.08
2024-01-06T01:21:12.803Z,35.08
2024-01-06T01:22:12.786Z,35.09
2024-01-06T01:23:12.748Z,35.06
2024-01-06T01:24:12.771Z,35.06
2024-01-06T01:25:12.797Z,35.06
2024-01-06T01:26:12.791Z,35.07
2024-01-06T01:27:12.810Z,35.07
2024-01-06T01:28:12.773Z,35.05
2024-01-06T01:29:12.780Z,35.05
2024-01-06T01:30:12.995Z,35.05
2024-01-06T01:31:12.910Z,35.07
2024-01-06T01:32:12.919Z,35.07
2024-01-06T01:33:12.925Z,35.04
2024-01-06T01:34:12.910Z,35.05
2024-01-06T01:35:12.805Z,35.05
2024-01-06T01:36:12.822Z,35.05
2024-01-06T01:37:12.791Z,35.00
2024-01-06T01:38:12.791Z,35.01
2024-01-06T01:39:13.674Z,35.03
2024-01-06T01:40:12.811Z,35.04
2024-01-06T01:41:12.803Z,35.04
2024-01-06T01:42:12.839Z,35.05
2024-01-06T01:43:12.822Z,35.03
2024-01-06T01:44:12.781Z,35.02
2024-01-06T01:45:13.644Z,35.02
2024-01-06T01:46:12.829Z,35.00
2024-01-06T01:47:12.858Z,35.00
2024-01-06T01:48:13.035Z,35.01
2024-01-06T01:49:12.913Z,35.00
2024-01-06T01:50:12.829Z,34.99
2024-01-06T01:51:12.844Z,34.99
2024-01-06T01:52:12.814Z,35.00
2024-01-06T01:53:12.838Z,34.99
2024-01-06T01:54:12.901Z,35.00
2024-01-06T01:55:12.830Z,34.99
2024-01-06T01:56:12.818Z,34.97
2024-01-06T01:57:12.840Z,34.96
2024-01-06T01:58:12.827Z,34.96
2024-01-06T01:59:12.817Z,34.98
2024-01-06T02:00:12.864Z,34.96
2024-01-06T02:01:12.915Z,34.95
2024-01-06T02:02:12.840Z,34.96
2024-01-06T02:03:12.905Z,34.95
2024-01-06T02:04:12.862Z,34.95
2024-01-06T02:05:12.885Z,34.95
2024-01-06T02:06:12.841Z,34.95
2024-01-06T02:07:12.817Z,34.94
2024-01-06T02:08:12.846Z,34.94
2024-01-06T02:09:12.865Z,34.94
2024-01-06T02:10:12.834Z,34.93
2024-01-06T02:11:12.857Z,34.93
2024-01-06T02:12:12.898Z,34.93
2024-01-06T02:13:12.890Z,34.93
2024-01-06T02:14:12.831Z,34.93
2024-01-06T02:15:12.908Z,34.94
2024-01-06T02:16:12.874Z,34.93
2024-01-06T02:17:12.849Z,34.93
2024-01-06T02:18:13.076Z,34.92
2024-01-06T02:19:12.938Z,34.92
2024-01-06T02:20:12.892Z,34.92
2024-01-06T02:21:12.947Z,34.94
2024-01-06T02:22:12.894Z,34.92
2024-01-06T02:23:12.895Z,34.93
2024-01-06T02:24:12.871Z,34.92
2024-01-06T02:25:12.857Z,34.90
2024-01-06T02:26:12.887Z,34.90
2024-01-06T02:27:12.916Z,34.90
2024-01-06T02:28:12.895Z,34.90
2024-01-06T02:29:12.883Z,34.89
2024-01-06T02:30:12.972Z,34.91
2024-01-06T02:31:13.041Z,34.89
2024-01-06T02:32:12.900Z,34.86
2024-01-06T02:33:13.097Z,34.88
2024-01-06T02:34:13.069Z,34.88
2024-01-06T02:35:12.865Z,34.88
2024-01-06T02:36:12.905Z,34.86
2024-01-06T02:37:12.952Z,34.89
2024-01-06T02:38:12.898Z,34.89
2024-01-06T02:39:12.939Z,34.87
2024-01-06T02:40:12.901Z,34.86
2024-01-06T02:41:12.888Z,34.88
2024-01-06T02:42:12.939Z,34.87
2024-01-06T02:43:12.907Z,34.86
2024-01-06T02:44:13.940Z,34.88
2024-01-06T02:45:13.013Z,34.87
2024-01-06T02:46:12.935Z,34.88
2024-01-06T02:47:12.916Z,34.87
2024-01-06T02:48:13.038Z,34.88
2024-01-06T02:49:13.008Z,34.84
2024-01-06T02:50:12.921Z,34.84
2024-01-06T02:51:12.905Z,34.82
2024-01-06T02:52:12.927Z,34.85
2024-01-06T02:53:12.901Z,34.84
2024-01-06T02:54:12.960Z,34.82
2024-01-06T02:55:12.919Z,34.83
2024-01-06T02:56:12.974Z,34.83
2024-01-06T02:57:12.959Z,34.84
2024-01-06T02:58:12.948Z,34.84
2024-01-06T02:59:12.939Z,34.84
2024-01-06T03:00:12.932Z,34.83
2024-01-06T03:01:13.109Z,34.82
2024-01-06T03:02:12.930Z,34.81
2024-01-06T03:03:12.978Z,34.82
2024-01-06T03:04:12.992Z,34.83
2024-01-06T03:05:12.946Z,34.82
2024-01-06T03:06:12.958Z,34.80
2024-01-06T03:07:12.947Z,34.79
2024-01-06T03:08:12.924Z,34.80
2024-01-06T03:09:12.968Z,34.80
2024-01-06T03:10:12.945Z,34.82
2024-01-06T03:11:12.924Z,34.80
2024-01-06T03:12:12.995Z,34.80
2024-01-06T03:13:12.986Z,34.81
2024-01-06T03:14:12.950Z,34.79
2024-01-06T03:15:12.974Z,34.81
2024-01-06T03:16:12.965Z,34.80
2024-01-06T03:17:12.949Z,34.79
2024-01-06T03:18:13.125Z,34.79
2024-01-06T03:19:13.066Z,34.78
2024-01-06T03:20:12.977Z,34.78
2024-01-06T03:21:12.999Z,34.77
2024-01-06T03:22:12.965Z,34.79
2024-01-06T03:23:13.194Z,34.76
2024-01-06T03:24:13.034Z,34.77
2024-01-06T03:25:12.942Z,34.76
2024-01-06T03:26:12.976Z,34.76
2024-01-06T03:27:12.992Z,34.76
2024-01-06T03:28:12.962Z,34.76
2024-01-06T03:29:12.975Z,34.77
2024-01-06T03:30:13.048Z,34.77
2024-01-06T03:31:13.081Z,34.77
2024-01-06T03:32:13.012Z,34.76
2024-01-06T03:33:13.093Z,34.74
2024-01-06T03:34:13.078Z,34.75
2024-01-06T03:35:13.001Z,34.76
2024-01-06T03:36:13.006Z,34.74
2024-01-06T03:37:13.007Z,34.75
2024-01-06T03:38:13.007Z,34.74
2024-01-06T03:39:12.988Z,34.74
2024-01-06T03:40:12.992Z,34.74
2024-01-06T03:41:12.996Z,34.73
2024-01-06T03:42:13.085Z,34.73
2024-01-06T03:43:13.020Z,34.72
2024-01-06T03:44:12.982Z,34.74
2024-01-06T03:45:13.007Z,34.74
2024-01-06T03:46:13.005Z,34.73
2024-01-06T03:47:13.014Z,34.72
2024-01-06T03:48:13.239Z,34.71
2024-01-06T03:49:13.100Z,34.71
2024-01-06T03:50:13.002Z,34.73
2024-01-06T03:51:13.107Z,34.71
2024-01-06T03:52:13.129Z,34.72
2024-01-06T03:53:13.034Z,34.71
2024-01-06T03:54:13.052Z,34.73
2024-01-06T03:55:13.030Z,34.69
2024-01-06T03:56:13.041Z,34.72
2024-01-06T03:57:13.060Z,34.72
2024-01-06T03:58:13.036Z,34.71
2024-01-06T03:59:13.033Z,34.73
2024-01-06T04:00:13.140Z,34.71
2024-01-06T04:01:13.134Z,34.70
2024-01-06T04:02:13.023Z,34.72
2024-01-06T04:03:13.073Z,34.69
2024-01-06T04:04:13.112Z,34.69
2024-01-06T04:05:13.128Z,34.69
2024-01-06T04:06:13.105Z,34.70
2024-01-06T04:07:13.033Z,34.70
2024-01-06T04:08:13.028Z,34.69
2024-01-06T04:09:14.175Z,34.70
2024-01-06T04:10:13.055Z,34.69
2024-01-06T04:11:13.063Z,34.69
2024-01-06T04:12:13.088Z,34.69
2024-01-06T04:13:13.025Z,34.70
2024-01-06T04:14:13.033Z,34.69
2024-01-06T04:15:13.035Z,34.69
2024-01-06T04:16:13.035Z,34.69
2024-01-06T04:17:13.031Z,34.68
2024-01-06T04:18:13.211Z,34.68
2024-01-06T04:19:13.197Z,34.67
2024-01-06T04:20:13.100Z,34.69
2024-01-06T04:21:13.085Z,34.67
2024-01-06T04:22:13.040Z,34.68
2024-01-06T04:23:13.080Z,34.65
2024-01-06T04:24:13.092Z,34.68
2024-01-06T04:25:13.075Z,34.65
2024-01-06T04:26:13.063Z,34.66
2024-01-06T04:27:13.080Z,34.65
2024-01-06T04:28:13.092Z,34.66
2024-01-06T04:29:13.093Z,34.65
2024-01-06T04:30:13.171Z,34.65
2024-01-06T04:31:13.279Z,34.65
2024-01-06T04:32:13.102Z,34.63
2024-01-06T04:33:13.245Z,34.66
2024-01-06T04:34:13.224Z,34.66
2024-01-06T04:35:13.130Z,34.65
2024-01-06T04:36:13.194Z,34.64
2024-01-06T04:37:13.131Z,34.66
2024-01-06T04:38:13.129Z,34.61
2024-01-06T04:39:13.170Z,34.64
2024-01-06T04:40:13.137Z,34.64
2024-01-06T04:41:13.209Z,34.64
2024-01-06T04:42:13.231Z,34.62
2024-01-06T04:43:13.168Z,34.64
2024-01-06T04:44:13.195Z,34.65
2024-01-06T04:45:13.182Z,34.63
2024-01-06T04:46:13.155Z,34.64
2024-01-06T04:47:20.447Z,34.69
2024-01-06T04:48:20.604Z,34.65
2024-01-06T04:49:20.508Z,34.63
2024-01-06T04:50:20.470Z,34.63
2024-01-06T04:51:20.495Z,34.64
2024-01-06T04:52:20.476Z,34.64
2024-01-06T04:53:20.476Z,34.64
2024-01-06T04:54:20.487Z,34.63
2024-01-06T04:55:20.466Z,34.64
2024-01-06T04:56:20.447Z,34.64
2024-01-06T04:57:20.492Z,34.61
2024-01-06T04:58:20.548Z,34.62
2024-01-06T04:59:20.473Z,34.61
2024-01-06T05:00:20.488Z,34.61
2024-01-06T05:01:20.658Z,34.61
2024-01-06T05:02:20.505Z,34.63
2024-01-06T05:03:20.609Z,34.61
2024-01-06T05:04:20.511Z,34.59
2024-01-06T05:05:20.547Z,34.61
2024-01-06T05:06:20.530Z,34.62
2024-01-06T05:07:20.524Z,34.60
2024-01-06T05:08:20.480Z,34.59
2024-01-06T05:09:20.535Z,34.58
2024-01-06T05:10:20.469Z,34.61
2024-01-06T05:11:20.470Z,34.60
2024-01-06T05:12:20.516Z,34.60
2024-01-06T05:13:20.504Z,34.59
2024-01-06T05:14:20.488Z,34.58
2024-01-06T05:15:20.623Z,34.57
2024-01-06T05:16:20.489Z,34.60
2024-01-06T05:17:20.527Z,34.58
2024-01-06T05:18:20.639Z,34.58
2024-01-06T05:19:20.757Z,34.58
2024-01-06T05:20:20.482Z,34.58
2024-01-06T05:21:20.497Z,34.58
2024-01-06T05:22:20.504Z,34.58
2024-01-06T05:23:20.500Z,34.57
2024-01-06T05:24:20.603Z,34.58
2024-01-06T05:25:20.486Z,34.58
2024-01-06T05:26:20.528Z,34.55
2024-01-06T05:27:20.530Z,34.56
2024-01-06T05:28:20.566Z,34.55
2024-01-06T05:29:20.508Z,34.55
2024-01-06T05:30:20.573Z,34.56
2024-01-06T05:31:20.647Z,34.56
2024-01-06T05:32:20.582Z,34.57
2024-01-06T05:34:20.586Z,34.57
2024-01-06T05:35:20.549Z,34.57
2024-01-06T05:36:20.540Z,34.57
2024-01-06T05:37:20.500Z,34.55
2024-01-06T05:38:20.530Z,34.57
2024-01-06T05:39:20.645Z,34.55
2024-01-06T05:40:20.518Z,34.55
2024-01-06T05:41:20.528Z,34.56
2024-01-06T05:42:20.533Z,34.56
2024-01-06T05:43:20.515Z,34.55
2024-01-06T05:44:20.529Z,34.55
2024-01-06T05:45:20.553Z,34.53
2024-01-06T05:46:20.495Z,34.53
2024-01-06T05:47:20.543Z,34.56
2024-01-06T05:48:20.763Z,34.55
2024-01-06T05:49:20.547Z,34.53
2024-01-06T05:50:20.537Z,34.53
2024-01-06T05:51:20.555Z,34.55
2024-01-06T05:52:20.536Z,34.56
2024-01-06T05:53:20.545Z,34.54
2024-01-06T05:54:20.587Z,34.55
2024-01-06T05:55:20.642Z,34.52
2024-01-06T05:56:20.540Z,34.53
2024-01-06T05:57:20.601Z,34.56
2024-01-06T05:58:20.572Z,34.54
2024-01-06T05:59:20.589Z,34.54
2024-01-06T06:00:20.565Z,34.53
2024-01-06T06:01:23.103Z,34.55
2024-01-06T06:02:20.653Z,34.53
2024-01-06T06:03:20.616Z,34.54
2024-01-06T06:04:20.714Z,34.55
2024-01-06T06:05:20.576Z,34.51
2024-01-06T06:06:20.594Z,34.54
2024-01-06T06:07:20.595Z,34.53
2024-01-06T06:08:20.589Z,34.53
2024-01-06T06:09:20.591Z,34.54
2024-01-06T06:10:20.585Z,34.53
2024-01-06T06:11:20.557Z,34.51
2024-01-06T06:12:20.577Z,34.51
2024-01-06T06:13:20.582Z,34.53
2024-01-06T06:14:20.614Z,34.52
2024-01-06T06:15:20.585Z,34.52
2024-01-06T06:16:20.574Z,34.53
2024-01-06T06:17:20.628Z,34.50
2024-01-06T06:18:20.659Z,34.51
2024-01-06T06:19:20.716Z,34.51
2024-01-06T06:20:20.555Z,34.51
2024-01-06T06:21:20.606Z,34.52
2024-01-06T06:22:20.593Z,34.51
2024-01-06T06:23:20.590Z,34.50
2024-01-06T06:24:20.594Z,34.51
2024-01-06T06:25:20.587Z,34.48
2024-01-06T06:26:20.589Z,34.49
2024-01-06T06:27:20.568Z,34.49
2024-01-06T06:28:20.596Z,34.48
2024-01-06T06:29:20.594Z,34.49
2024-01-06T06:30:20.629Z,34.50
2024-01-06T06:31:20.671Z,34.49
2024-01-06T06:32:20.612Z,34.47
2024-01-06T06:33:20.646Z,34.48
2024-01-06T06:34:20.700Z,34.50
2024-01-06T06:35:20.603Z,34.45
2024-01-06T06:36:20.604Z,34.45
2024-01-06T06:37:20.642Z,34.47
2024-01-06T06:38:20.604Z,34.46
2024-01-06T06:39:20.634Z,34.47
2024-01-06T06:40:20.591Z,34.47
2024-01-06T06:41:20.584Z,34.47
2024-01-06T06:42:20.626Z,34.47
2024-01-06T06:43:20.633Z,34.46
2024-01-06T06:44:20.659Z,34.45
2024-01-06T06:45:20.616Z,34.47
2024-01-06T06:46:20.605Z,34.46
2024-01-06T06:47:20.613Z,34.46
2024-01-06T06:48:20.622Z,34.46
2024-01-06T06:49:20.740Z,34.47
2024-01-06T06:50:20.623Z,34.46
2024-01-06T06:51:20.646Z,34.46
2024-01-06T06:52:20.639Z,34.46
2024-01-06T06:53:20.621Z,34.45
2024-01-06T06:54:20.679Z,34.44
2024-01-06T06:55:20.618Z,34.46
2024-01-06T06:56:20.617Z,34.43
2024-01-06T06:57:20.654Z,34.45
2024-01-06T06:58:20.637Z,34.43
2024-01-06T06:59:20.645Z,34.41
2024-01-06T07:00:20.674Z,34.41
2024-01-06T07:01:20.719Z,34.44
2024-01-06T07:02:20.674Z,34.44
2024-01-06T07:03:20.830Z,34.43
2024-01-06T07:04:20.642Z,34.42
2024-01-06T07:05:20.702Z,34.41
2024-01-06T07:06:20.658Z,34.40
2024-01-06T07:07:20.634Z,34.42
2024-01-06T07:08:20.666Z,34.41
2024-01-06T07:09:23.317Z,34.42
2024-01-06T07:10:20.674Z,34.40
2024-01-06T07:11:20.637Z,34.42
2024-01-06T07:12:20.674Z,34.42
2024-01-06T07:13:20.671Z,34.40
2024-01-06T07:14:20.638Z,34.42
2024-01-06T07:15:20.693Z,34.41
2024-01-06T07:16:20.713Z,34.39
2024-01-06T07:17:20.633Z,34.39
2024-01-06T07:18:20.846Z,34.38
2024-01-06T07:19:20.726Z,34.41
2024-01-06T07:20:20.659Z,34.38
2024-01-06T07:21:20.814Z,34.38
2024-01-06T07:22:20.637Z,34.38
2024-01-06T07:23:20.673Z,34.39
2024-01-06T07:24:20.648Z,34.40
2024-01-06T07:25:20.669Z,34.40
2024-01-06T07:26:20.649Z,34.40
2024-01-06T07:27:20.681Z,34.41
2024-01-06T07:28:20.671Z,34.39
2024-01-06T07:29:20.645Z,34.37
2024-01-06T07:30:20.733Z,34.38
2024-01-06T07:31:20.726Z,34.38
2024-01-06T07:32:20.716Z,34.35
2024-01-06T07:33:20.735Z,34.38
2024-01-06T07:34:20.816Z,34.36
2024-01-06T07:35:20.696Z,34.39
2024-01-06T07:36:20.720Z,34.37
2024-01-06T07:37:20.675Z,34.35
2024-01-06T07:38:20.720Z,34.38
2024-01-06T07:39:20.711Z,34.38
2024-01-06T07:40:20.684Z,34.37
2024-01-06T07:41:20.675Z,34.36
2024-01-06T07:42:20.769Z,34.35
2024-01-06T07:43:20.674Z,34.35
2024-01-06T07:44:20.706Z,34.35
2024-01-06T07:45:20.722Z,34.36
2024-01-06T07:46:20.845Z,34.36
2024-01-06T07:47:20.702Z,34.36
2024-01-06T07:48:20.793Z,34.34
2024-01-06T07:49:20.872Z,34.35
2024-01-06T07:50:20.724Z,34.34
2024-01-06T07:51:20.746Z,34.35
2024-01-06T07:52:20.686Z,34.34
2024-01-06T07:53:20.729Z,34.36
2024-01-06T07:54:20.726Z,34.35
2024-01-06T07:55:20.724Z,34.36
2024-01-06T07:56:20.693Z,34.37
2024-01-06T07:57:20.757Z,34.36
2024-01-06T07:58:20.737Z,34.35
2024-01-06T07:59:20.724Z,34.33
2024-01-06T08:00:20.805Z,34.34
2024-01-06T08:01:20.770Z,34.36
2024-01-06T08:02:20.719Z,34.34
2024-01-06T08:03:20.804Z,34.34
2024-01-06T08:04:20.924Z,34.33
2024-01-06T08:05:20.804Z,34.33
2024-01-06T08:06:20.841Z,34.33
2024-01-06T08:07:20.731Z,34.33
2024-01-06T08:08:20.739Z,34.32
2024-01-06T08:09:20.763Z,34.35
2024-01-06T08:10:20.748Z,34.34
2024-01-06T08:11:20.730Z,34.32
2024-01-06T08:12:20.835Z,34.32
2024-01-06T08:13:20.726Z,34.32
2024-01-06T08:14:20.760Z,34.32
2024-01-06T08:15:20.739Z,34.32
2024-01-06T08:16:20.811Z,34.32
2024-01-06T08:17:20.769Z,34.31
2024-01-06T08:18:20.882Z,34.31
2024-01-06T08:19:20.830Z,34.31
2024-01-06T08:20:20.744Z,34.32
2024-01-06T08:21:20.784Z,34.33
2024-01-06T08:22:20.796Z,34.30
2024-01-06T08:23:20.751Z,34.30
2024-01-06T08:24:20.892Z,34.27
2024-01-06T08:25:20.818Z,34.30
2024-01-06T08:26:20.775Z,34.29
2024-01-06T08:27:20.778Z,34.31
2024-01-06T08:28:20.766Z,34.30
2024-01-06T08:29:20.772Z,34.29
2024-01-06T08:30:20.865Z,34.29
2024-01-06T08:31:20.889Z,34.29
2024-01-06T08:32:20.787Z,34.29
2024-01-06T08:33:20.931Z,34.29
2024-01-06T08:34:20.898Z,34.27
2024-01-06T08:35:20.763Z,34.27
2024-01-06T08:36:20.793Z,34.27
2024-01-06T08:37:20.763Z,34.27
2024-01-06T08:38:20.794Z,34.28
2024-01-06T08:39:20.854Z,34.28
2024-01-06T08:40:20.796Z,34.26
2024-01-06T08:41:20.802Z,34.25
2024-01-06T08:42:20.838Z,34.26
2024-01-06T08:43:20.766Z,34.28
2024-01-06T08:44:20.785Z,34.27
2024-01-06T08:45:20.835Z,34.28
2024-01-06T08:46:20.778Z,34.28
2024-01-06T08:47:20.800Z,34.28
2024-01-06T08:48:20.993Z,34.25
2024-01-06T08:49:20.838Z,34.23
2024-01-06T08:50:20.789Z,34.26
2024-01-06T08:51:20.836Z,34.27
2024-01-06T08:52:20.822Z,34.26
2024-01-06T08:53:20.798Z,34.27
2024-01-06T08:54:20.807Z,34.26
2024-01-06T08:55:20.797Z,34.26
2024-01-06T08:56:20.806Z,34.24
2024-01-06T08:57:20.842Z,34.25
2024-01-06T08:58:20.822Z,34.26
2024-01-06T08:59:20.819Z,34.24
2024-01-06T09:00:20.862Z,34.23
2024-01-06T09:01:20.955Z,34.22
2024-01-06T09:02:20.849Z,34.24
2024-01-06T09:03:20.882Z,34.24
2024-01-06T09:04:20.891Z,34.23
2024-01-06T09:05:20.919Z,34.23
2024-01-06T09:06:20.848Z,34.22
2024-01-06T09:07:20.819Z,34.23
2024-01-06T09:08:20.895Z,34.21
2024-01-06T09:09:20.867Z,34.23
2024-01-06T09:10:20.845Z,34.21
2024-01-06T09:11:20.829Z,34.20
2024-01-06T09:12:20.902Z,34.21
2024-01-06T09:13:20.868Z,34.20
2024-01-06T09:14:20.845Z,34.21
2024-01-06T09:15:20.888Z,34.22
2024-01-06T09:16:20.857Z,34.20
2024-01-06T09:17:20.970Z,34.18
2024-01-06T09:18:21.021Z,34.20
2024-01-06T09:19:20.954Z,34.21
2024-01-06T09:20:20.869Z,34.22
2024-01-06T09:21:20.897Z,34.21
2024-01-06T09:22:20.894Z,34.22
2024-01-06T09:23:22.617Z,34.20
2024-01-06T09:24:20.910Z,34.22
2024-01-06T09:25:20.862Z,34.21
2024-01-06T09:26:20.859Z,34.21
2024-01-06T09:27:20.876Z,34.20
2024-01-06T09:28:20.854Z,34.20
2024-01-06T09:29:20.863Z,34.21
2024-01-06T09:30:20.971Z,34.20
2024-01-06T09:31:20.885Z,34.20
2024-01-06T09:32:20.905Z,34.19
2024-01-06T09:33:20.974Z,34.19
2024-01-06T09:34:20.905Z,34.19
2024-01-06T09:35:20.858Z,34.18
2024-01-06T09:36:20.863Z,34.19
2024-01-06T09:37:20.895Z,34.19
2024-01-06T09:38:20.887Z,34.19
2024-01-06T09:39:20.899Z,34.18
2024-01-06T09:40:20.888Z,34.19
2024-01-06T09:41:20.891Z,34.19
2024-01-06T09:42:20.876Z,34.20
2024-01-06T09:43:20.877Z,34.18
2024-01-06T09:44:20.886Z,34.19
2024-01-06T09:45:20.906Z,34.17
2024-01-06T09:46:20.884Z,34.18
2024-01-06T09:47:20.894Z,34.19
2024-01-06T09:48:20.964Z,34.17
2024-01-06T09:49:21.035Z,34.18
2024-01-06T09:50:20.868Z,34.18
2024-01-06T09:51:20.935Z,34.16
2024-01-06T09:52:20.893Z,34.16
2024-01-06T09:53:20.926Z,34.16
2024-01-06T09:54:20.951Z,34.15
2024-01-06T09:55:20.905Z,34.14
2024-01-06T09:56:20.920Z,34.16
2024-01-06T09:57:20.921Z,34.16
2024-01-06T09:58:21.062Z,34.15
2024-01-06T09:59:20.933Z,34.15
2024-01-06T10:00:20.890Z,34.15
2024-01-06T10:01:20.959Z,34.13
2024-01-06T10:02:20.924Z,34.16
2024-01-06T10:03:20.970Z,34.15
2024-01-06T10:04:24.441Z,34.13
2024-01-06T10:05:20.962Z,34.16
2024-01-06T10:06:21.061Z,34.14
2024-01-06T10:07:20.897Z,34.14
2024-01-06T10:08:20.945Z,34.15
2024-01-06T10:09:20.942Z,34.12
2024-01-06T10:10:20.921Z,34.14
2024-01-06T10:11:20.902Z,34.14
2024-01-06T10:12:20.981Z,34.14
2024-01-06T10:13:20.959Z,34.12
2024-01-06T10:14:20.947Z,34.12
2024-01-06T10:15:20.945Z,34.14
2024-01-06T10:16:21.025Z,34.14
2024-01-06T10:17:20.918Z,34.15
2024-01-06T10:18:21.064Z,34.14
2024-01-06T10:19:21.029Z,34.12
2024-01-06T10:20:20.909Z,34.13
2024-01-06T10:21:20.929Z,34.13
2024-01-06T10:22:20.925Z,34.14
2024-01-06T10:23:20.938Z,34.12
2024-01-06T10:24:21.032Z,34.15
2024-01-06T10:25:20.938Z,34.14
2024-01-06T10:26:20.951Z,34.13
2024-01-06T10:27:20.980Z,34.14
2024-01-06T10:28:21.010Z,34.14
2024-01-06T10:29:20.969Z,34.12
2024-01-06T10:30:20.975Z,34.13
2024-01-06T10:31:21.084Z,34.13
2024-01-06T10:32:20.986Z,34.10
2024-01-06T10:33:21.138Z,34.12
2024-01-06T10:34:21.108Z,34.12
2024-01-06T10:35:20.967Z,34.12
2024-01-06T10:36:20.978Z,34.11
2024-01-06T10:37:20.961Z,34.09
2024-01-06T10:38:20.953Z,34.09
2024-01-06T10:39:20.989Z,34.08
2024-01-06T10:40:20.973Z,34.09
2024-01-06T10:41:20.974Z,34.12
2024-01-06T10:42:20.985Z,34.11
2024-01-06T10:43:20.942Z,34.11
2024-01-06T10:44:20.951Z,34.10
2024-01-06T10:45:20.994Z,34.11
2024-01-06T10:46:20.968Z,34.10
2024-01-06T10:47:21.061Z,34.09
2024-01-06T10:48:21.067Z,34.09
2024-01-06T10:49:21.016Z,34.10
2024-01-06T10:50:21.013Z,34.11
2024-01-06T10:51:21.043Z,34.11
2024-01-06T10:52:21.094Z,34.11
2024-01-06T10:53:20.992Z,34.09
2024-01-06T10:54:21.005Z,34.10
2024-01-06T10:55:20.991Z,34.09
2024-01-06T10:56:20.993Z,34.09
2024-01-06T10:57:21.026Z,34.11
2024-01-06T10:58:20.975Z,34.10
2024-01-06T10:59:21.047Z,34.10
2024-01-06T11:00:20.994Z,34.12
2024-01-06T11:01:21.838Z,34.10
2024-01-06T11:02:21.009Z,34.08
2024-01-06T11:03:21.031Z,34.11
2024-01-06T11:04:21.053Z,34.08
2024-01-06T11:05:21.077Z,34.10
2024-01-06T11:06:21.104Z,34.08
2024-01-06T11:07:20.984Z,34.07
2024-01-06T11:08:21.035Z,34.09
2024-01-06T11:09:21.142Z,34.09
2024-01-06T11:10:21.009Z,34.08
2024-01-06T11:11:21.005Z,34.08
2024-01-06T11:12:22.117Z,34.07
2024-01-06T11:13:21.003Z,34.07
2024-01-06T11:14:21.057Z,34.07
2024-01-06T11:15:21.038Z,34.08
2024-01-06T11:16:21.021Z,34.09
2024-01-06T11:17:21.018Z,34.07
2024-01-06T11:18:21.168Z,34.07
2024-01-06T11:19:21.116Z,34.08
2024-01-06T11:20:21.052Z,34.08
2024-01-06T11:21:21.032Z,34.07
2024-01-06T11:22:21.054Z,34.07
2024-01-06T11:23:21.030Z,34.07
2024-01-06T11:24:21.050Z,34.09
2024-01-06T11:25:21.036Z,34.07
2024-01-06T11:26:21.018Z,34.09
2024-01-06T11:27:21.044Z,34.08
2024-01-06T11:28:21.033Z,34.08
2024-01-06T11:29:21.048Z,34.09
2024-01-06T11:30:21.170Z,34.06
2024-01-06T11:31:21.198Z,34.06
2024-01-06T11:32:21.027Z,34.08
2024-01-06T11:33:21.145Z,34.08
2024-01-06T11:34:21.120Z,34.08
2024-01-06T11:35:21.058Z,34.10
2024-01-06T11:36:21.146Z,34.08
2024-01-06T11:37:21.102Z,34.08
2024-01-06T11:38:21.062Z,34.09
2024-01-06T11:39:21.073Z,34.08
2024-01-06T11:40:21.039Z,34.09
2024-01-06T11:41:21.023Z,34.07
2024-01-06T11:42:21.060Z,34.07
2024-01-06T11:43:21.062Z,34.06
2024-01-06T11:44:21.060Z,34.07
2024-01-06T11:45:21.072Z,34.08
2024-01-06T11:46:21.056Z,34.06
2024-01-06T11:47:21.031Z,34.06
2024-01-06T11:48:22.497Z,34.07
2024-01-06T11:49:21.252Z,34.06
2024-01-06T11:50:21.089Z,34.06
2024-01-06T11:51:21.109Z,34.04
2024-01-06T11:52:21.046Z,34.04
2024-01-06T11:53:21.073Z,34.03
2024-01-06T11:54:23.097Z,34.06
2024-01-06T11:55:21.047Z,34.05
2024-01-06T11:56:21.078Z,34.04
2024-01-06T11:57:21.153Z,34.04
2024-01-06T11:58:21.099Z,34.05
2024-01-06T11:59:21.094Z,34.06
2024-01-06T12:00:21.127Z,34.06
2024-01-06T12:01:21.248Z,34.05
2024-01-06T12:02:21.078Z,34.05
2024-01-06T12:03:21.105Z,34.05
2024-01-06T12:04:21.114Z,34.05
2024-01-06T12:05:21.142Z,34.04
2024-01-06T12:06:21.118Z,34.07
2024-01-06T12:07:21.245Z,34.06
2024-01-06T12:08:21.096Z,34.05
2024-01-06T12:09:21.125Z,34.05
2024-01-06T12:10:21.133Z,34.07
2024-01-06T12:11:21.101Z,34.07
2024-01-06T12:12:21.155Z,34.05
2024-01-06T12:13:21.085Z,34.04
2024-01-06T12:14:21.108Z,34.06
2024-01-06T12:15:21.197Z,34.03
2024-01-06T12:16:21.096Z,34.05
2024-01-06T12:17:21.110Z,34.05
2024-01-06T12:18:21.182Z,34.04
2024-01-06T12:19:21.219Z,34.06
2024-01-06T12:20:21.099Z,34.05
2024-01-06T12:21:21.139Z,34.08
2024-01-06T12:22:21.107Z,34.04
2024-01-06T12:23:21.092Z,34.05
2024-01-06T12:24:21.119Z,34.07
2024-01-06T12:25:21.090Z,34.05
2024-01-06T12:26:21.149Z,34.04
2024-01-06T12:27:21.143Z,34.07
2024-01-06T12:28:21.108Z,34.04
2024-01-06T12:29:21.123Z,34.05
2024-01-06T12:30:21.320Z,34.05
2024-01-06T12:31:21.177Z,34.07
2024-01-06T12:32:21.109Z,34.04
2024-01-06T12:33:21.144Z,34.05
2024-01-06T12:34:21.240Z,34.06
2024-01-06T12:35:21.118Z,34.04
2024-01-06T12:36:26.779Z,34.06
2024-01-06T12:37:22.133Z,34.08
2024-01-06T12:38:21.147Z,34.08
2024-01-06T12:39:21.219Z,34.07
2024-01-06T12:40:21.446Z,34.05
2024-01-06T12:41:21.136Z,34.04
2024-01-06T12:42:21.169Z,34.05
2024-01-06T12:43:21.143Z,34.04
2024-01-06T12:44:21.118Z,34.02
2024-01-06T12:45:21.182Z,34.07
2024-01-06T12:46:21.177Z,34.05
2024-01-06T12:47:21.189Z,34.06
2024-01-06T12:48:21.215Z,34.07
2024-01-06T12:49:21.246Z,34.06
2024-01-06T12:50:21.258Z,34.05
2024-01-06T12:51:21.325Z,34.05
2024-01-06T12:52:21.320Z,34.04
2024-01-06T12:53:21.363Z,34.03